createdAt,value
2018-03-26T00:00:31.771Z,1007.37
2018-03-26T00:01:31.766Z,1007.35
2018-03-26T00:02:31.757Z,1007.39
2018-03-26T00:03:31.758Z,1007.39
2018-03-26T00:04:31.747Z,1007.45
2018-03-26T00:05:31.740Z,1007.40
2018-03-26T00:06:31.737Z,1007.39
2018-03-26T00:07:31.732Z,1007.39
2018-03-26T00:08:31.721Z,1007.38
2018-03-26T00:09:31.716Z,1007.41
2018-03-26T00:10:31.717Z,1007.45
2018-03-26T00:11:31.706Z,1007.39
2018-03-26T00:12:31.696Z,1007.41
2018-03-26T00:13:31.691Z,1007.41
2018-03-26T00:14:31.683Z,1007.43
2018-03-26T00:15:31.678Z,1007.41
2018-03-26T00:16:31.671Z,1007.42
2018-03-26T00:17:31.666Z,1007.44
2018-03-26T00:18:31.660Z,1007.47
2018-03-26T00:19:31.652Z,1007.45
2018-03-26T00:20:31.650Z,1007.48
2018-03-26T00:21:31.643Z,1007.45
2018-03-26T00:22:31.631Z,1007.50
2018-03-26T00:23:31.625Z,1007.49
2018-03-26T00:24:31.624Z,1007.46
2018-03-26T00:25:31.617Z,1007.48
2018-03-26T00:26:31.606Z,1007.45
2018-03-26T00:27:31.599Z,1007.55
2018-03-26T00:28:31.593Z,1007.52
2018-03-26T00:29:31.588Z,1007.49
2018-03-26T00:30:31.580Z,1007.51
2018-03-26T00:31:31.573Z,1007.52
2018-03-26T00:32:31.568Z,1007.48
2018-03-26T00:33:31.560Z,1007.49
2018-03-26T00:34:31.557Z,1007.51
2018-03-26T00:35:31.547Z,1007.49
2018-03-26T00:36:31.540Z,1007.52
2018-03-26T00:37:31.534Z,1007.55
2018-03-26T00:38:31.532Z,1007.46
2018-03-26T00:39:31.524Z,1007.50
2018-03-26T00:40:31.515Z,1007.52
2018-03-26T00:41:31.515Z,1007.44
2018-03-26T00:42:31.504Z,1007.50
2018-03-26T00:43:31.505Z,1007.55
2018-03-26T00:44:31.489Z,1007.53
2018-03-26T00:45:31.481Z,1007.54
2018-03-26T00:46:31.473Z,1007.53
2018-03-26T00:47:31.468Z,1007.53
2018-03-26T00:48:31.460Z,1007.54
2018-03-26T00:49:31.454Z,1007.54
2018-03-26T00:50:31.450Z,1007.52
2018-03-26T00:51:31.444Z,1007.50
2018-03-26T00:52:31.434Z,1007.51
2018-03-26T00:53:31.429Z,1007.48
2018-03-26T00:54:31.420Z,1007.54
2018-03-26T00:55:31.414Z,1007.53
2018-03-26T00:56:31.407Z,1007.55
2018-03-26T00:57:31.401Z,1007.52
2018-03-26T00:58:31.393Z,1007.53
2018-03-26T00:59:31.386Z,1007.52
2018-03-26T01:00:31.380Z,1007.55
2018-03-26T01:01:31.375Z,1007.54
2018-03-26T01:02:31.374Z,1007.59
2018-03-26T01:03:31.364Z,1007.55
2018-03-26T01:04:31.357Z,1007.57
2018-03-26T01:05:31.351Z,1007.55
2018-03-26T01:06:31.339Z,1007.57
2018-03-26T01:07:31.336Z,1007.61
2018-03-26T01:08:31.326Z,1007.58
2018-03-26T01:09:31.321Z,1007.58
2018-03-26T01:10:31.311Z,1007.64
2018-03-26T01:11:31.306Z,1007.62
2018-03-26T01:12:31.298Z,1007.61
2018-03-26T01:13:31.293Z,1007.62
2018-03-26T01:14:31.284Z,1007.58
2018-03-26T01:15:31.278Z,1007.60
2018-03-26T01:16:31.274Z,1007.56
2018-03-26T01:17:31.267Z,1007.60
2018-03-26T01:18:31.259Z,1007.62
2018-03-26T01:19:31.250Z,1007.64
2018-03-26T01:20:31.243Z,1007.65
2018-03-26T01:21:31.235Z,1007.68
2018-03-26T01:22:31.232Z,1007.72
2018-03-26T01:23:31.239Z,1007.71
2018-03-26T01:24:31.215Z,1007.76
2018-03-26T01:25:31.211Z,1007.77
2018-03-26T01:26:31.204Z,1007.82
2018-03-26T01:27:31.193Z,1007.78
2018-03-26T01:28:31.186Z,1007.85
2018-03-26T01:29:31.179Z,1007.89
2018-03-26T01:30:31.174Z,1007.88
2018-03-26T01:31:31.163Z,1007.92
2018-03-26T01:32:31.156Z,1007.92
2018-03-26T01:33:31.149Z,1007.94
2018-03-26T01:34:31.146Z,1007.96
2018-03-26T01:35:31.138Z,1007.97
2018-03-26T01:36:31.131Z,1007.96
2018-03-26T01:37:31.124Z,1008.07
2018-03-26T01:38:31.112Z,1008.03
2018-03-26T01:39:31.107Z,1008.07
2018-03-26T01:40:31.098Z,1008.05
2018-03-26T01:41:31.092Z,1008.07
2018-03-26T01:42:31.083Z,1008.07
2018-03-26T01:43:31.077Z,1008.10
2018-03-26T01:44:31.070Z,1008.05
2018-03-26T01:45:31.061Z,1008.15
2018-03-26T01:46:31.053Z,1008.13
2018-03-26T01:47:31.046Z,1008.07
2018-03-26T01:48:31.043Z,1008.13
2018-03-26T01:49:31.037Z,1008.16
2018-03-26T01:50:31.024Z,1008.11
2018-03-26T01:51:31.018Z,1008.22
2018-03-26T01:52:31.009Z,1008.21
2018-03-26T01:53:31.003Z,1008.20
2018-03-26T01:54:30.998Z,1008.17
2018-03-26T01:55:30.990Z,1008.16
2018-03-26T01:56:30.980Z,1008.17
2018-03-26T01:57:30.972Z,1008.24
2018-03-26T01:58:30.965Z,1008.23
2018-03-26T01:59:30.957Z,1008.25
2018-03-26T02:00:30.950Z,1008.21
2018-03-26T02:01:30.943Z,1008.26
2018-03-26T02:02:30.935Z,1008.23
2018-03-26T02:03:30.928Z,1008.27
2018-03-26T02:04:30.920Z,1008.21
2018-03-26T02:05:30.914Z,1008.27
2018-03-26T02:06:30.909Z,1008.19
2018-03-26T02:07:30.901Z,1008.23
2018-03-26T02:08:30.894Z,1008.28
2018-03-26T02:09:30.888Z,1008.27
2018-03-26T02:10:30.874Z,1008.29
2018-03-26T02:11:30.868Z,1008.34
2018-03-26T02:12:30.862Z,1008.31
2018-03-26T02:13:30.854Z,1008.32
2018-03-26T02:14:30.845Z,1008.37
2018-03-26T02:15:30.839Z,1008.32
2018-03-26T02:16:30.831Z,1008.41
2018-03-26T02:17:30.823Z,1008.38
2018-03-26T02:18:30.815Z,1008.31
2018-03-26T02:19:30.807Z,1008.39
2018-03-26T02:20:30.804Z,1008.38
2018-03-26T02:21:30.798Z,1008.40
2018-03-26T02:22:30.784Z,1008.44
2018-03-26T02:23:30.777Z,1008.37
2018-03-26T02:24:30.772Z,1008.41
2018-03-26T02:25:30.763Z,1008.42
2018-03-26T02:26:30.759Z,1008.44
2018-03-26T02:27:30.752Z,1008.41
2018-03-26T02:28:30.740Z,1008.43
2018-03-26T02:29:30.734Z,1008.47
2018-03-26T02:30:30.728Z,1008.45
2018-03-26T02:31:30.719Z,1008.50
2018-03-26T02:32:30.712Z,1008.46
2018-03-26T02:33:30.705Z,1008.47
2018-03-26T02:34:30.696Z,1008.48
2018-03-26T02:35:30.688Z,1008.48
2018-03-26T02:36:30.681Z,1008.47
2018-03-26T02:37:30.673Z,1008.48
2018-03-26T02:38:30.668Z,1008.52
2018-03-26T02:39:30.662Z,1008.50
2018-03-26T02:40:30.654Z,1008.49
2018-03-26T02:41:30.647Z,1008.48
2018-03-26T02:42:30.637Z,1008.45
2018-03-26T02:43:30.629Z,1008.52
2018-03-26T02:44:30.622Z,1008.45
2018-03-26T02:45:30.614Z,1008.50
2018-03-26T02:46:30.608Z,1008.52
2018-03-26T02:47:30.599Z,1008.56
2018-03-26T02:48:30.592Z,1008.56
2018-03-26T02:49:30.584Z,1008.53
2018-03-26T02:50:30.576Z,1008.56
2018-03-26T02:51:30.568Z,1008.58
2018-03-26T02:52:30.566Z,1008.61
2018-03-26T02:53:30.557Z,1008.53
2018-03-26T02:54:30.547Z,1008.55
2018-03-26T02:55:30.540Z,1008.55
2018-03-26T02:56:30.533Z,1008.53
2018-03-26T02:57:30.530Z,1008.59
2018-03-26T02:58:30.516Z,1008.60
2018-03-26T02:59:30.510Z,1008.60
2018-03-26T03:00:30.506Z,1008.63
2018-03-26T03:01:30.498Z,1008.68
2018-03-26T03:02:30.488Z,1008.70
2018-03-26T03:03:30.485Z,1008.63
2018-03-26T03:04:30.478Z,1008.69
2018-03-26T03:05:30.471Z,1008.66
2018-03-26T03:06:30.457Z,1008.70
2018-03-26T03:07:30.456Z,1008.68
2018-03-26T03:08:30.442Z,1008.67
2018-03-26T03:09:30.436Z,1008.68
2018-03-26T03:10:30.429Z,1008.62
2018-03-26T03:11:30.421Z,1008.62
2018-03-26T03:12:30.413Z,1008.66
2018-03-26T03:13:30.412Z,1008.73
2018-03-26T03:14:30.398Z,1008.65
2018-03-26T03:15:30.391Z,1008.69
2018-03-26T03:16:30.384Z,1008.71
2018-03-26T03:17:30.378Z,1008.73
2018-03-26T03:18:30.373Z,1008.70
2018-03-26T03:19:30.366Z,1008.68
2018-03-26T03:20:30.354Z,1008.72
2018-03-26T03:21:30.348Z,1008.70
2018-03-26T03:22:30.348Z,1008.69
2018-03-26T03:23:30.337Z,1008.76
2018-03-26T03:24:30.325Z,1008.73
2018-03-26T03:25:30.320Z,1008.76
2018-03-26T03:26:30.312Z,1008.80
2018-03-26T03:27:30.305Z,1008.74
2018-03-26T03:28:30.298Z,1008.75
2018-03-26T03:29:30.290Z,1008.80
2018-03-26T03:30:30.283Z,1008.77
2018-03-26T03:31:30.279Z,1008.81
2018-03-26T03:32:30.272Z,1008.81
2018-03-26T03:33:30.265Z,1008.80
2018-03-26T03:34:30.253Z,1008.85
2018-03-26T03:35:30.248Z,1008.87
2018-03-26T03:36:30.243Z,1008.88
2018-03-26T03:37:30.236Z,1008.86
2018-03-26T03:38:30.223Z,1008.86
2018-03-26T03:39:30.218Z,1008.88
2018-03-26T03:40:30.211Z,1008.86
2018-03-26T03:41:30.205Z,1008.91
2018-03-26T03:42:30.196Z,1008.86
2018-03-26T03:43:30.189Z,1008.86
2018-03-26T03:44:30.181Z,1008.86
2018-03-26T03:45:30.179Z,1008.87
2018-03-26T03:46:30.167Z,1008.89
2018-03-26T03:47:30.159Z,1008.88
2018-03-26T03:48:30.152Z,1008.86
2018-03-26T03:49:30.145Z,1008.88
2018-03-26T03:50:30.141Z,1008.86
2018-03-26T03:51:30.135Z,1008.85
2018-03-26T03:52:30.123Z,1008.84
2018-03-26T03:53:30.117Z,1008.88
2018-03-26T03:54:30.112Z,1008.88
2018-03-26T03:55:30.105Z,1008.85
2018-03-26T03:56:30.094Z,1008.87
2018-03-26T03:57:30.089Z,1008.90
2018-03-26T03:58:30.081Z,1008.88
2018-03-26T03:59:30.074Z,1008.87
2018-03-26T04:00:30.066Z,1008.86
2018-03-26T04:01:30.059Z,1008.88
2018-03-26T04:02:30.054Z,1008.88
2018-03-26T04:03:30.047Z,1008.88
2018-03-26T04:04:30.036Z,1008.85
2018-03-26T04:05:30.032Z,1008.91
2018-03-26T04:06:30.022Z,1008.99
2018-03-26T04:07:30.014Z,1008.99
2018-03-26T04:08:30.007Z,1008.95
2018-03-26T04:09:30.000Z,1008.99
2018-03-26T04:10:29.992Z,1009.06
2018-03-26T04:11:29.984Z,1009.00
2018-03-26T04:12:29.978Z,1009.06
2018-03-26T04:13:29.970Z,1009.02
2018-03-26T04:14:29.967Z,1008.99
2018-03-26T04:15:29.959Z,1009.02
2018-03-26T04:16:29.951Z,1009.05
2018-03-26T04:17:29.944Z,1009.05
2018-03-26T04:18:29.979Z,1009.08
2018-03-26T04:19:29.926Z,1009.04
2018-03-26T04:20:29.918Z,1009.05
2018-03-26T04:21:29.911Z,1009.06
2018-03-26T04:22:29.905Z,1009.10
2018-03-26T04:23:29.894Z,1009.08
2018-03-26T04:24:29.888Z,1009.10
2018-03-26T04:25:29.880Z,1009.11
2018-03-26T04:26:29.871Z,1009.13
2018-03-26T04:27:29.864Z,1009.09
2018-03-26T04:28:29.859Z,1009.13
2018-03-26T04:29:29.853Z,1009.16
2018-03-26T04:30:29.844Z,1009.19
2018-03-26T04:31:29.831Z,1009.19
2018-03-26T04:32:29.823Z,1009.12
2018-03-26T04:33:29.815Z,1009.18
2018-03-26T04:34:29.811Z,1009.26
2018-03-26T04:35:29.803Z,1009.26
2018-03-26T04:36:29.791Z,1009.16
2018-03-26T04:37:29.785Z,1009.19
2018-03-26T04:38:29.776Z,1009.21
2018-03-26T04:39:29.768Z,1009.22
2018-03-26T04:40:29.760Z,1009.15
2018-03-26T04:41:29.753Z,1009.18
2018-03-26T04:42:29.743Z,1009.16
2018-03-26T04:43:29.736Z,1009.15
2018-03-26T04:44:29.732Z,1009.13
2018-03-26T04:45:29.721Z,1009.13
2018-03-26T04:46:29.715Z,1009.13
2018-03-26T04:47:29.708Z,1009.15
2018-03-26T04:48:29.700Z,1009.14
2018-03-26T04:49:29.691Z,1009.17
2018-03-26T04:50:29.682Z,1009.14
2018-03-26T04:51:29.670Z,1009.16
2018-03-26T04:52:29.663Z,1009.10
2018-03-26T04:53:29.655Z,1009.13
2018-03-26T04:54:29.647Z,1009.15
2018-03-26T04:55:29.638Z,1009.15
2018-03-26T04:56:29.630Z,1009.12
2018-03-26T04:57:29.622Z,1009.16
2018-03-26T04:58:29.612Z,1009.14
2018-03-26T04:59:29.604Z,1009.11
2018-03-26T05:00:29.603Z,1009.16
2018-03-26T05:01:29.591Z,1009.18
2018-03-26T05:02:29.649Z,1009.19
2018-03-26T05:03:29.573Z,1009.16
2018-03-26T05:04:29.563Z,1009.18
2018-03-26T05:05:29.561Z,1009.16
2018-03-26T05:06:29.545Z,1009.19
2018-03-26T05:07:29.540Z,1009.15
2018-03-26T05:08:29.533Z,1009.15
2018-03-26T05:09:29.524Z,1009.19
2018-03-26T05:10:29.511Z,1009.23
2018-03-26T05:11:29.507Z,1009.26
2018-03-26T05:12:29.501Z,1009.25
2018-03-26T05:13:29.492Z,1009.31
2018-03-26T05:14:29.478Z,1009.30
2018-03-26T05:15:29.469Z,1009.32
2018-03-26T05:16:29.463Z,1009.31
2018-03-26T05:17:29.455Z,1009.31
2018-03-26T05:18:29.445Z,1009.37
2018-03-26T05:19:29.437Z,1009.46
2018-03-26T05:20:29.429Z,1009.40
2018-03-26T05:21:29.421Z,1009.37
2018-03-26T05:22:29.412Z,1009.44
2018-03-26T05:23:29.406Z,1009.42
2018-03-26T05:24:29.395Z,1009.46
2018-03-26T05:25:29.388Z,1009.45
2018-03-26T05:26:29.383Z,1009.44
2018-03-26T05:27:29.372Z,1009.53
2018-03-26T05:28:29.363Z,1009.53
2018-03-26T05:29:29.352Z,1009.52
2018-03-26T05:30:29.347Z,1009.59
2018-03-26T05:31:29.339Z,1009.58
2018-03-26T05:32:29.327Z,1009.59
2018-03-26T05:33:29.318Z,1009.69
2018-03-26T05:34:29.310Z,1009.64
2018-03-26T05:35:29.302Z,1009.65
2018-03-26T05:36:29.295Z,1009.68
2018-03-26T05:37:29.285Z,1009.65
2018-03-26T05:38:29.276Z,1009.71
2018-03-26T05:39:29.268Z,1009.71
2018-03-26T05:40:29.291Z,1009.75
2018-03-26T05:41:29.257Z,1009.79
2018-03-26T05:42:29.242Z,1009.75
2018-03-26T05:43:29.234Z,1009.77
2018-03-26T05:44:29.230Z,1009.83
2018-03-26T05:45:29.223Z,1009.85
2018-03-26T05:46:29.210Z,1009.85
2018-03-26T05:47:29.202Z,1009.89
2018-03-26T05:48:29.195Z,1009.89
2018-03-26T05:49:29.185Z,1009.92
2018-03-26T05:50:29.178Z,1009.94
2018-03-26T05:51:29.169Z,1009.88
2018-03-26T05:52:29.161Z,1009.94
2018-03-26T05:53:29.153Z,1009.94
2018-03-26T05:54:29.146Z,1009.93
2018-03-26T05:55:29.137Z,1009.95
2018-03-26T05:56:29.129Z,1009.97
2018-03-26T05:57:29.121Z,1010.01
2018-03-26T05:58:29.116Z,1010.06
2018-03-26T05:59:29.108Z,1009.96
2018-03-26T06:00:29.097Z,1010.05
2018-03-26T06:01:29.090Z,1010.06
2018-03-26T06:02:29.084Z,1010.10
2018-03-26T06:03:29.077Z,1010.11
2018-03-26T06:04:29.067Z,1010.12
2018-03-26T06:05:29.060Z,1010.13
2018-03-26T06:06:29.051Z,1010.14
2018-03-26T06:07:29.043Z,1010.19
2018-03-26T06:08:29.036Z,1010.24
2018-03-26T06:09:29.031Z,1010.17
2018-03-26T06:10:29.023Z,1010.16
2018-03-26T06:11:29.017Z,1010.21
2018-03-26T06:12:29.006Z,1010.28
2018-03-26T06:13:29.000Z,1010.33
2018-03-26T06:14:28.991Z,1010.36
2018-03-26T06:15:29.002Z,1010.31
2018-03-26T06:16:28.977Z,1010.35
2018-03-26T06:17:28.971Z,1010.33
2018-03-26T06:18:28.964Z,1010.31
2018-03-26T06:19:28.958Z,1010.31
2018-03-26T06:20:28.950Z,1010.39
2018-03-26T06:21:28.945Z,1010.39
2018-03-26T06:22:28.948Z,1010.41
2018-03-26T06:23:28.935Z,1010.44
2018-03-26T06:24:28.935Z,1010.43
2018-03-26T06:25:28.924Z,1010.43
2018-03-26T06:26:28.911Z,1010.48
2018-03-26T06:27:28.905Z,1010.43
2018-03-26T06:28:28.901Z,1010.47
2018-03-26T06:29:28.895Z,1010.48
2018-03-26T06:30:28.957Z,1010.46
2018-03-26T06:31:28.882Z,1010.47
2018-03-26T06:32:28.874Z,1010.50
2018-03-26T06:33:28.870Z,1010.57
2018-03-26T06:34:28.865Z,1010.57
2018-03-26T06:35:28.855Z,1010.57
2018-03-26T06:36:28.857Z,1010.55
2018-03-26T06:37:28.845Z,1010.51
2018-03-26T06:38:28.834Z,1010.57
2018-03-26T06:39:28.829Z,1010.57
2018-03-26T06:40:28.821Z,1010.60
2018-03-26T06:41:28.815Z,1010.59
2018-03-26T06:42:28.812Z,1010.57
2018-03-26T06:43:28.807Z,1010.58
2018-03-26T06:44:28.795Z,1010.63
2018-03-26T06:45:28.788Z,1010.65
2018-03-26T06:46:28.781Z,1010.68
2018-03-26T06:47:28.777Z,1010.68
2018-03-26T06:48:28.768Z,1010.68
2018-03-26T06:49:28.762Z,1010.69
2018-03-26T06:50:28.754Z,1010.71
2018-03-26T06:51:28.747Z,1010.70
2018-03-26T06:52:28.740Z,1010.70
2018-03-26T06:53:28.735Z,1010.74
2018-03-26T06:54:28.731Z,1010.75
2018-03-26T06:55:28.724Z,1010.81
2018-03-26T06:56:28.717Z,1010.78
2018-03-26T06:57:28.710Z,1010.80
2018-03-26T06:58:28.700Z,1010.78
2018-03-26T06:59:28.694Z,1010.84
2018-03-26T07:00:28.685Z,1010.84
2018-03-26T07:01:28.679Z,1010.89
2018-03-26T07:02:28.671Z,1010.91
2018-03-26T07:03:28.669Z,1010.90
2018-03-26T07:04:28.659Z,1010.91
2018-03-26T07:05:28.652Z,1010.91
2018-03-26T07:06:28.643Z,1010.91
2018-03-26T07:07:28.637Z,1010.91
2018-03-26T07:08:28.636Z,1010.92
2018-03-26T07:09:28.628Z,1010.97
2018-03-26T07:10:28.616Z,1010.95
2018-03-26T07:11:28.610Z,1011.01
2018-03-26T07:12:28.701Z,1011.01
2018-03-26T07:13:28.598Z,1011.03
2018-03-26T07:14:28.591Z,1011.07
2018-03-26T07:15:28.584Z,1011.08
2018-03-26T07:16:28.581Z,1011.11
2018-03-26T07:17:28.577Z,1011.15
2018-03-26T07:18:28.565Z,1011.13
2018-03-26T07:19:28.559Z,1011.12
2018-03-26T07:20:28.557Z,1011.17
2018-03-26T07:21:28.551Z,1011.18
2018-03-26T07:22:28.540Z,1011.14
2018-03-26T07:23:28.537Z,1011.20
2018-03-26T07:24:28.528Z,1011.14
2018-03-26T07:25:28.525Z,1011.17
2018-03-26T07:26:28.518Z,1011.15
2018-03-26T07:27:28.512Z,1011.16
2018-03-26T07:28:28.507Z,1011.19
2018-03-26T07:29:28.501Z,1011.22
2018-03-26T07:30:28.494Z,1011.21
2018-03-26T07:31:28.490Z,1011.27
2018-03-26T07:32:28.486Z,1011.24
2018-03-26T07:33:28.479Z,1011.27
2018-03-26T07:34:28.477Z,1011.39
2018-03-26T07:35:28.472Z,1011.38
2018-03-26T07:36:28.466Z,1011.48
2018-03-26T07:37:28.462Z,1011.42
2018-03-26T07:38:28.459Z,1011.58
2018-03-26T07:39:28.455Z,1011.59
2018-03-26T07:40:28.448Z,1011.58
2018-03-26T07:41:28.444Z,1011.55
2018-03-26T07:42:28.440Z,1011.67
2018-03-26T07:43:28.438Z,1011.59
2018-03-26T07:44:28.440Z,1011.78
2018-03-26T07:45:28.432Z,1011.77
2018-03-26T07:46:28.429Z,1011.68
2018-03-26T07:47:28.428Z,1011.80
2018-03-26T07:48:28.431Z,1011.89
2018-03-26T07:49:28.432Z,1011.85
2018-03-26T07:50:28.426Z,1011.89
2018-03-26T07:51:28.427Z,1011.93
2018-03-26T07:52:28.431Z,1011.93
2018-03-26T07:53:28.432Z,1011.92
2018-03-26T07:54:28.429Z,1011.95
2018-03-26T07:55:28.431Z,1011.96
2018-03-26T07:56:28.434Z,1011.96
2018-03-26T07:57:28.436Z,1011.86
2018-03-26T07:58:28.438Z,1011.90
2018-03-26T07:59:28.442Z,1012.00
2018-03-26T08:00:28.446Z,1012.03
2018-03-26T08:01:28.450Z,1012.05
2018-03-26T08:02:28.454Z,1012.08
2018-03-26T08:03:28.460Z,1012.21
2018-03-26T08:04:28.462Z,1012.10
2018-03-26T08:05:28.466Z,1012.14
2018-03-26T08:06:28.626Z,1012.20
2018-03-26T08:08:28.487Z,1012.21
2018-03-26T08:09:28.488Z,1012.25
2018-03-26T08:10:28.492Z,1012.25
2018-03-26T08:11:28.511Z,1012.23
2018-03-26T08:12:28.509Z,1012.30
2018-03-26T08:13:28.512Z,1012.29
2018-03-26T08:14:28.519Z,1012.22
2018-03-26T08:15:28.524Z,1012.29
2018-03-26T08:16:28.531Z,1012.33
2018-03-26T08:17:28.541Z,1012.37
2018-03-26T08:18:28.544Z,1012.42
2018-03-26T08:19:28.561Z,1012.42
2018-03-26T08:20:28.562Z,1012.46
2018-03-26T08:21:28.566Z,1012.47
2018-03-26T08:22:28.574Z,1012.47
2018-03-26T08:23:28.582Z,1012.48
2018-03-26T08:24:28.589Z,1012.42
2018-03-26T08:25:28.596Z,1012.47
2018-03-26T08:26:28.604Z,1012.46
2018-03-26T08:27:28.612Z,1012.55
2018-03-26T08:28:28.619Z,1012.56
2018-03-26T08:29:28.628Z,1012.54
2018-03-26T08:30:28.636Z,1012.53
2018-03-26T08:31:28.648Z,1012.58
2018-03-26T08:32:28.657Z,1012.61
2018-03-26T08:33:28.670Z,1012.61
2018-03-26T08:34:28.674Z,1012.60
2018-03-26T08:35:28.679Z,1012.67
2018-03-26T08:36:28.710Z,1012.64
2018-03-26T08:37:28.699Z,1012.71
2018-03-26T08:38:28.705Z,1012.69
2018-03-26T08:39:28.718Z,1012.65
2018-03-26T08:40:28.725Z,1012.68
2018-03-26T08:41:28.736Z,1012.68
2018-03-26T08:42:28.826Z,1012.69
2018-03-26T08:43:28.754Z,1012.69
2018-03-26T08:44:28.765Z,1012.65
2018-03-26T08:45:28.779Z,1012.65
2018-03-26T08:46:28.788Z,1012.67
2018-03-26T08:47:28.794Z,1012.70
2018-03-26T08:48:28.808Z,1012.79
2018-03-26T08:49:28.818Z,1012.76
2018-03-26T08:50:28.872Z,1012.81
2018-03-26T08:51:28.843Z,1012.84
2018-03-26T08:52:28.853Z,1012.80
2018-03-26T08:53:29.365Z,1012.79
2018-03-26T08:54:28.872Z,1012.83
2018-03-26T08:55:28.883Z,1012.85
2018-03-26T08:56:28.896Z,1012.88
2018-03-26T08:57:28.908Z,1012.87
2018-03-26T08:58:28.920Z,1012.88
2018-03-26T08:59:28.932Z,1012.89
2018-03-26T09:00:28.944Z,1012.86
2018-03-26T09:01:28.957Z,1012.87
2018-03-26T09:02:28.969Z,1012.85
2018-03-26T09:03:28.986Z,1012.85
2018-03-26T09:04:29.009Z,1012.78
2018-03-26T09:05:29.010Z,1012.77
2018-03-26T09:06:29.022Z,1012.80
2018-03-26T09:07:29.031Z,1012.84
2018-03-26T09:08:29.046Z,1012.88
2018-03-26T09:09:29.058Z,1012.90
2018-03-26T09:10:29.071Z,1012.88
2018-03-26T09:11:29.084Z,1012.89
2018-03-26T09:12:29.098Z,1012.89
2018-03-26T09:13:29.110Z,1012.90
2018-03-26T09:14:29.123Z,1012.89
2018-03-26T09:15:29.137Z,1012.88
2018-03-26T09:16:29.149Z,1012.93
2018-03-26T09:17:29.221Z,1012.92
2018-03-26T09:18:29.179Z,1012.95
2018-03-26T09:19:29.190Z,1012.98
2018-03-26T09:20:29.203Z,1012.97
2018-03-26T09:21:29.218Z,1012.95
2018-03-26T09:22:29.230Z,1012.91
2018-03-26T09:23:29.244Z,1012.94
2018-03-26T09:24:29.259Z,1012.91
2018-03-26T09:25:29.277Z,1012.88
2018-03-26T09:26:29.289Z,1012.92
2018-03-26T09:27:29.302Z,1012.97
2018-03-26T09:28:29.314Z,1012.95
2018-03-26T09:29:29.333Z,1012.96
2018-03-26T09:36:26.130Z,1012.99
2018-03-26T09:37:26.142Z,1013.08
2018-03-26T09:38:26.159Z,1013.08
2018-03-26T09:39:26.179Z,1013.15
2018-03-26T09:40:26.192Z,1013.12
2018-03-26T09:41:26.203Z,1013.14
2018-03-26T09:42:26.218Z,1013.11
2018-03-26T09:43:26.239Z,1013.12
2018-03-26T09:44:26.252Z,1013.05
2018-03-26T09:45:26.265Z,1013.02
2018-03-26T09:46:26.283Z,1013.10
2018-03-26T09:47:26.295Z,1013.07
2018-03-26T09:48:26.309Z,1012.92
2018-03-26T09:49:26.325Z,1012.76
2018-03-26T09:50:26.341Z,1013.26
2018-03-26T09:51:26.361Z,1013.31
2018-03-26T09:52:26.372Z,1013.13
2018-03-26T09:53:26.447Z,1012.89
2018-03-26T09:54:26.403Z,1012.84
2018-03-26T09:55:26.415Z,1012.82
2018-03-26T09:56:26.430Z,1012.81
2018-03-26T09:57:26.449Z,1012.72
2018-03-26T09:58:26.464Z,1012.72
2018-03-26T09:59:26.476Z,1012.70
2018-03-26T10:00:26.491Z,1012.75
2018-03-26T10:01:26.507Z,1012.78
2018-03-26T10:02:26.521Z,1012.78
2018-03-26T10:03:26.538Z,1012.73
2018-03-26T10:04:26.552Z,1012.78
2018-03-26T10:05:26.567Z,1012.70
2018-03-26T10:06:26.583Z,1012.70
2018-03-26T10:07:26.599Z,1012.75
2018-03-26T10:08:26.614Z,1012.80
2018-03-26T10:09:26.629Z,1012.76
2018-03-26T10:10:26.645Z,1012.81
2018-03-26T10:11:26.665Z,1012.84
2018-03-26T10:12:26.678Z,1012.85
2018-03-26T10:13:26.691Z,1012.85
2018-03-26T10:14:26.707Z,1012.86
2018-03-26T10:15:26.727Z,1012.82
2018-03-26T10:16:26.740Z,1012.83
2018-03-26T10:17:26.752Z,1012.83
2018-03-26T10:18:26.770Z,1012.85
2018-03-26T10:19:26.785Z,1012.73
2018-03-26T10:20:26.800Z,1012.80
2018-03-26T10:21:26.817Z,1012.81
2018-03-26T10:22:26.832Z,1012.79
2018-03-26T10:23:26.849Z,1012.77
2018-03-26T10:24:26.866Z,1012.76
2018-03-26T10:25:26.882Z,1012.72
2018-03-26T10:26:26.900Z,1012.77
2018-03-26T10:27:26.911Z,1012.78
2018-03-26T10:28:26.927Z,1012.79
2018-03-26T10:29:26.950Z,1012.77
2018-03-26T10:30:26.964Z,1012.75
2018-03-26T10:31:26.974Z,1012.73
2018-03-26T10:32:26.988Z,1012.77
2018-03-26T10:33:27.005Z,1012.73
2018-03-26T10:34:27.027Z,1012.72
2018-03-26T10:35:27.040Z,1012.72
2018-03-26T10:36:27.052Z,1012.70
2018-03-26T10:37:27.072Z,1012.66
2018-03-26T10:38:27.130Z,1012.62
2018-03-26T10:39:27.101Z,1012.67
2018-03-26T10:40:27.116Z,1012.67
2018-03-26T10:41:27.132Z,1012.64
2018-03-26T10:42:27.149Z,1012.62
2018-03-26T10:43:27.164Z,1012.67
2018-03-26T10:44:27.179Z,1012.73
2018-03-26T10:45:27.193Z,1012.77
2018-03-26T10:46:27.208Z,1012.76
2018-03-26T10:47:27.225Z,1012.73
2018-03-26T10:48:27.238Z,1012.67
2018-03-26T10:49:27.257Z,1012.68
2018-03-26T10:50:27.274Z,1012.61
2018-03-26T10:51:27.284Z,1012.64
2018-03-26T10:52:27.296Z,1012.59
2018-03-26T10:53:27.311Z,1012.62
2018-03-26T10:54:27.326Z,1012.59
2018-03-26T10:55:27.349Z,1012.61
2018-03-26T10:56:27.359Z,1012.54
2018-03-26T10:57:27.368Z,1012.57
2018-03-26T10:58:27.381Z,1012.61
2018-03-26T10:59:27.393Z,1012.65
2018-03-26T11:00:27.463Z,1012.67
2018-03-26T11:01:27.421Z,1012.61
2018-03-26T11:02:27.433Z,1012.63
2018-03-26T11:03:27.446Z,1012.59
2018-03-26T11:04:27.458Z,1012.56
2018-03-26T11:05:27.470Z,1012.60
2018-03-26T11:06:27.482Z,1012.56
2018-03-26T11:07:27.499Z,1012.55
2018-03-26T11:08:27.510Z,1012.58
2018-03-26T11:09:27.522Z,1012.51
2018-03-26T11:10:27.539Z,1012.50
2018-03-26T11:11:27.541Z,1012.49
2018-03-26T11:12:27.552Z,1012.48
2018-03-26T11:13:27.563Z,1012.49
2018-03-26T11:14:27.576Z,1012.44
2018-03-26T11:15:27.586Z,1012.49
2018-03-26T11:16:27.597Z,1012.46
2018-03-26T11:17:27.655Z,1012.51
2018-03-26T11:18:27.618Z,1012.49
2018-03-26T11:19:27.628Z,1012.52
2018-03-26T11:20:27.637Z,1012.50
2018-03-26T11:21:27.651Z,1012.53
2018-03-26T11:22:27.661Z,1012.56
2018-03-26T11:23:27.667Z,1012.53
2018-03-26T11:24:27.676Z,1012.53
2018-03-26T11:25:27.685Z,1012.51
2018-03-26T11:26:27.695Z,1012.52
2018-03-26T11:27:27.709Z,1012.49
2018-03-26T11:28:27.717Z,1012.47
2018-03-26T11:29:27.724Z,1012.50
2018-03-26T11:30:27.731Z,1012.50
2018-03-26T11:31:27.742Z,1012.41
2018-03-26T11:32:27.753Z,1012.44
2018-03-26T11:33:27.759Z,1012.45
2018-03-26T11:34:27.766Z,1012.45
2018-03-26T11:35:27.775Z,1012.37
2018-03-26T11:36:27.793Z,1012.42
2018-03-26T11:37:27.790Z,1012.41
2018-03-26T11:38:27.797Z,1012.43
2018-03-26T11:39:27.810Z,1012.41
2018-03-26T11:40:27.816Z,1012.41
2018-03-26T11:41:27.820Z,1012.35
2018-03-26T11:42:27.828Z,1012.35
2018-03-26T11:43:27.835Z,1012.39
2018-03-26T11:44:27.842Z,1012.39
2018-03-26T11:45:27.848Z,1012.39
2018-03-26T11:46:27.855Z,1012.35
2018-03-26T11:47:27.865Z,1012.35
2018-03-26T11:48:27.872Z,1012.33
2018-03-26T11:49:27.873Z,1012.32
2018-03-26T11:50:27.880Z,1012.29
2018-03-26T11:51:27.892Z,1012.37
2018-03-26T11:52:27.894Z,1012.34
2018-03-26T11:53:27.907Z,1012.32
2018-03-26T11:54:27.902Z,1012.26
2018-03-26T11:55:27.911Z,1012.31
2018-03-26T11:56:27.913Z,1012.30
2018-03-26T11:57:27.919Z,1012.33
2018-03-26T11:58:27.924Z,1012.33
2018-03-26T11:59:27.929Z,1012.27
2018-03-26T12:00:27.932Z,1012.30
2018-03-26T12:01:27.994Z,1012.33
2018-03-26T12:02:27.948Z,1012.29
2018-03-26T12:03:27.947Z,1012.25
2018-03-26T12:04:27.952Z,1012.19
2018-03-26T12:05:27.960Z,1012.25
2018-03-26T12:06:27.965Z,1012.24
2018-03-26T12:07:27.966Z,1012.22
2018-03-26T12:08:27.968Z,1012.21
2018-03-26T12:09:27.974Z,1012.21
2018-03-26T12:10:27.979Z,1012.23
2018-03-26T12:11:28.028Z,1012.22
2018-03-26T12:12:27.985Z,1012.18